Terminal Aerodrome Forecast
Issued by NWS Pocatello, ID

Home | Current Version | Previous Version | Text Only | Print | Product List | Glossary On
Versions: 1 2 3 4 5 6 7 8 9 10 11 12 13 14 15 16 17 18 19 20 21 22 23 24 25 26 27 28
710
FTUS45 KPIH 081737
TAFPIH
TAF
KPIH 081737Z 0818/0918 05007KT P6SM SCT060 BKN120
     FM082100 05006KT 6SM -SN BR SCT020 OVC035
     FM082300 05006KT 4SM -SN BR BKN010 OVC025
     FM090300 18006KT 4SM -SN BR BKN010 OVC025
     FM090900 21011G20KT 6SM -SHSN BR SCT010 OVC020=

USA.gov is the U.S. government's official web portal to all federal, state and local government web resources and services.